createdAt,value
2018-03-22T00:01:32.339Z,73.93
2018-03-22T00:04:00.506Z,73.61
2018-03-22T00:06:28.645Z,73.08
2018-03-22T00:08:56.780Z,73.53
2018-03-22T00:11:24.919Z,73.05
2018-03-22T00:13:53.103Z,73.61
2018-03-22T00:16:21.316Z,73.56
2018-03-22T00:18:49.442Z,73.61
2018-03-22T00:21:17.581Z,73.70
2018-03-22T00:23:45.730Z,74.28
2018-03-22T00:26:13.893Z,74.76
2018-03-22T00:28:42.023Z,74.66
2018-03-22T00:31:10.172Z,75.00
2018-03-22T00:33:38.306Z,74.77
2018-03-22T00:36:06.532Z,74.75
2018-03-22T00:38:34.694Z,74.88
2018-03-22T00:41:02.830Z,74.99
2018-03-22T00:43:30.957Z,75.14
2018-03-22T00:45:59.077Z,75.07
2018-03-22T00:48:27.348Z,75.49
2018-03-22T00:50:55.500Z,75.72
2018-03-22T00:53:23.644Z,75.82
2018-03-22T00:55:51.771Z,75.76
2018-03-22T00:58:19.907Z,75.70
2018-03-22T01:00:48.064Z,75.66
2018-03-22T01:03:16.193Z,75.74
2018-03-22T01:05:44.322Z,75.58
2018-03-22T01:08:12.472Z,75.07
2018-03-22T01:10:40.633Z,75.54
2018-03-22T01:13:08.788Z,76.26
2018-03-22T01:15:36.903Z,75.57
2018-03-22T01:18:05.058Z,75.93
2018-03-22T01:20:33.193Z,75.59
2018-03-22T01:23:01.314Z,75.63
2018-03-22T01:25:29.445Z,76.06
2018-03-22T01:27:57.626Z,75.43
2018-03-22T01:30:36.576Z,75.56
2018-03-22T01:33:04.723Z,75.26
2018-03-22T01:35:32.856Z,74.94
2018-03-22T01:38:00.992Z,74.80
2018-03-22T01:40:29.123Z,74.87
2018-03-22T01:42:57.267Z,75.22
2018-03-22T01:45:25.391Z,74.76
2018-03-22T01:47:53.521Z,74.95
2018-03-22T01:50:21.718Z,74.65
2018-03-22T01:53:01.563Z,74.62
2018-03-22T01:55:29.735Z,74.39
2018-03-22T01:57:57.834Z,74.33
2018-03-22T02:00:25.984Z,74.47
2018-03-22T02:02:54.173Z,74.47
2018-03-22T02:05:22.359Z,74.33
2018-03-22T02:07:50.491Z,74.23
2018-03-22T02:10:18.636Z,74.69
2018-03-22T02:12:46.793Z,75.28
2018-03-22T02:15:14.916Z,75.17
2018-03-22T02:17:43.078Z,75.51
2018-03-22T02:20:11.222Z,75.17
2018-03-22T02:22:39.405Z,75.71
2018-03-22T02:25:07.567Z,75.64
2018-03-22T02:27:35.730Z,76.03
2018-03-22T02:30:03.880Z,76.23
2018-03-22T02:32:32.009Z,75.71
2018-03-22T02:35:00.129Z,75.78
2018-03-22T02:37:28.308Z,75.89
2018-03-22T02:39:56.436Z,76.22
2018-03-22T02:42:24.554Z,75.97
2018-03-22T02:44:52.705Z,75.91
2018-03-22T02:47:20.838Z,76.29
2018-03-22T02:49:48.980Z,75.84
2018-03-22T02:52:17.111Z,76.31
2018-03-22T02:54:45.240Z,75.75
2018-03-22T02:57:13.384Z,75.54
2018-03-22T02:59:41.507Z,75.75
2018-03-22T03:02:09.634Z,75.94
2018-03-22T03:04:37.776Z,75.93
2018-03-22T03:07:05.931Z,76.14
2018-03-22T03:09:34.056Z,76.37
2018-03-22T03:12:02.198Z,75.42
2018-03-22T03:14:30.318Z,75.62
2018-03-22T03:16:58.494Z,75.66
2018-03-22T03:19:26.674Z,75.73
2018-03-22T03:21:54.816Z,75.47
2018-03-22T03:24:22.949Z,75.90
2018-03-22T03:26:51.077Z,76.49
2018-03-22T03:29:19.201Z,77.29
2018-03-22T03:31:47.365Z,78.03
2018-03-22T03:34:15.628Z,78.93
2018-03-22T03:36:43.751Z,78.85
2018-03-22T03:39:11.892Z,79.19
2018-03-22T03:41:40.103Z,79.39
2018-03-22T03:44:08.250Z,79.69
2018-03-22T03:46:36.388Z,79.99
2018-03-22T03:49:04.530Z,79.69
2018-03-22T03:51:32.674Z,80.48
2018-03-22T03:54:00.816Z,80.74
2018-03-22T03:56:28.949Z,80.90
2018-03-22T03:58:57.106Z,80.83
2018-03-22T04:01:25.252Z,80.93
2018-03-22T04:03:53.378Z,80.89
2018-03-22T04:06:21.513Z,80.91
2018-03-22T04:08:49.672Z,81.13
2018-03-22T04:11:17.835Z,80.76
2018-03-22T04:13:45.992Z,81.48
2018-03-22T04:16:14.123Z,81.27
2018-03-22T04:18:42.262Z,81.48
2018-03-22T04:21:10.398Z,81.38
2018-03-22T04:23:38.543Z,81.42
2018-03-22T04:26:06.674Z,81.50
2018-03-22T04:28:34.816Z,81.72
2018-03-22T04:31:02.958Z,81.28
2018-03-22T04:33:31.596Z,81.67
2018-03-22T04:36:00.511Z,81.32
2018-03-22T04:38:28.666Z,81.19
2018-03-22T04:40:56.823Z,81.56
2018-03-22T04:43:24.938Z,81.48
2018-03-22T04:45:59.447Z,81.41
2018-03-22T04:48:27.559Z,81.56
2018-03-22T04:50:55.702Z,81.29
2018-03-22T04:53:24.132Z,81.52
2018-03-22T04:55:52.307Z,81.81
2018-03-22T04:58:20.465Z,82.21
2018-03-22T05:00:48.637Z,81.78
2018-03-22T05:03:16.882Z,82.01
2018-03-22T05:05:45.075Z,82.25
2018-03-22T05:08:13.427Z,82.25
2018-03-22T05:10:41.701Z,82.22
2018-03-22T05:13:10.149Z,82.14
2018-03-22T05:15:38.289Z,82.53
2018-03-22T05:18:06.415Z,82.73
2018-03-22T05:20:34.604Z,84.16
2018-03-22T05:23:02.736Z,85.49
2018-03-22T05:25:30.878Z,86.20
2018-03-22T05:27:59.006Z,86.42
2018-03-22T05:30:27.227Z,86.58
2018-03-22T05:32:55.360Z,86.77
2018-03-22T05:35:23.507Z,86.98
2018-03-22T05:37:51.650Z,86.99
2018-03-22T05:40:19.806Z,88.12
2018-03-22T05:42:47.952Z,88.29
2018-03-22T05:45:16.089Z,88.22
2018-03-22T05:47:44.250Z,88.68
2018-03-22T05:50:12.387Z,88.98
2018-03-22T05:52:40.534Z,89.25
2018-03-22T05:55:09.666Z,89.45
2018-03-22T05:57:37.803Z,89.76
2018-03-22T06:00:05.927Z,92.54
2018-03-22T06:02:34.067Z,88.45
2018-03-22T06:05:02.193Z,89.16
2018-03-22T06:07:30.396Z,89.88
2018-03-22T06:09:58.548Z,90.70
2018-03-22T06:12:26.676Z,90.77
2018-03-22T06:14:54.834Z,90.87
2018-03-22T06:17:22.972Z,90.88
2018-03-22T06:19:51.119Z,91.14
2018-03-22T06:22:19.288Z,91.46
2018-03-22T06:24:47.420Z,91.04
2018-03-22T06:27:15.574Z,91.11
2018-03-22T06:29:43.723Z,91.60
2018-03-22T06:32:11.834Z,91.56
2018-03-22T06:34:39.995Z,90.85
2018-03-22T06:37:08.125Z,91.42
2018-03-22T06:39:36.295Z,91.42
2018-03-22T06:42:04.444Z,89.23
2018-03-22T06:44:32.580Z,90.37
2018-03-22T06:47:00.707Z,90.33
2018-03-22T06:49:28.874Z,90.95
2018-03-22T06:51:57.031Z,91.65
2018-03-22T06:54:25.173Z,91.49
2018-03-22T06:56:53.446Z,92.12
2018-03-22T06:59:21.607Z,92.01
2018-03-22T07:01:49.731Z,92.29
2018-03-22T07:04:17.875Z,92.79
2018-03-22T07:06:46.057Z,93.96
2018-03-22T07:09:14.189Z,93.19
2018-03-22T07:11:42.345Z,93.36
2018-03-22T07:14:10.522Z,93.65
2018-03-22T07:16:38.645Z,94.21
2018-03-22T07:19:06.776Z,93.88
2018-03-22T07:21:34.939Z,94.30
2018-03-22T07:24:03.111Z,94.61
2018-03-22T07:26:31.275Z,94.80
2018-03-22T07:28:59.490Z,94.56
2018-03-22T07:31:27.659Z,94.82
2018-03-22T07:33:55.798Z,94.97
2018-03-22T07:36:24.070Z,94.77
2018-03-22T07:38:52.195Z,95.03
2018-03-22T07:41:20.359Z,95.29
2018-03-22T07:43:48.498Z,95.09
2018-03-22T07:46:16.647Z,94.49
2018-03-22T07:48:44.790Z,94.53
2018-03-22T07:51:12.924Z,94.97
2018-03-22T07:53:41.164Z,94.39
2018-03-22T07:56:09.335Z,94.19
2018-03-22T07:58:37.517Z,94.34
2018-03-22T08:01:05.638Z,94.49
2018-03-22T08:03:33.821Z,94.66
2018-03-22T08:06:01.959Z,94.26
2018-03-22T08:08:30.131Z,94.14
2018-03-22T08:10:58.274Z,93.84
2018-03-22T08:13:26.431Z,94.28
2018-03-22T08:15:54.591Z,94.57
2018-03-22T08:18:22.726Z,94.83
2018-03-22T08:20:51.809Z,94.94
2018-03-22T08:23:20.271Z,93.74
2018-03-22T08:25:48.447Z,93.29
2018-03-22T08:28:16.597Z,94.50
2018-03-22T08:30:44.739Z,93.79
2018-03-22T08:33:12.863Z,93.96
2018-03-22T08:35:41.006Z,94.15
2018-03-22T08:38:09.139Z,93.92
2018-03-22T08:40:37.275Z,93.42
2018-03-22T08:43:05.447Z,93.71
2018-03-22T08:45:33.572Z,93.91
2018-03-22T08:48:01.779Z,93.64
2018-03-22T08:50:29.901Z,94.37
2018-03-22T08:52:58.044Z,94.33
2018-03-22T08:55:26.239Z,94.80
2018-03-22T08:57:54.407Z,94.33
2018-03-22T09:00:22.541Z,94.25
2018-03-22T09:02:50.696Z,94.87
2018-03-22T09:05:18.844Z,95.03
2018-03-22T09:07:46.967Z,94.82
2018-03-22T09:10:15.138Z,94.44
2018-03-22T09:12:43.276Z,94.23
2018-03-22T09:15:11.430Z,94.05
2018-03-22T09:17:39.603Z,94.86
2018-03-22T09:20:07.739Z,95.53
2018-03-22T09:22:35.936Z,95.43
2018-03-22T09:25:04.061Z,95.42
2018-03-22T09:27:32.216Z,95.61
2018-03-22T09:30:00.359Z,95.64
2018-03-22T09:32:28.512Z,95.30
2018-03-22T09:34:56.669Z,95.59
2018-03-22T09:37:24.809Z,95.25
2018-03-22T09:39:52.929Z,95.15
2018-03-22T09:42:21.074Z,95.97
2018-03-22T09:44:49.211Z,95.64
2018-03-22T09:47:17.388Z,95.82
2018-03-22T09:49:45.539Z,95.48
2018-03-22T09:52:13.663Z,95.60
2018-03-22T09:54:41.812Z,95.67
2018-03-22T09:57:09.975Z,95.68
2018-03-22T09:59:38.094Z,95.64
2018-03-22T10:02:06.246Z,95.55
2018-03-22T10:04:34.379Z,96.02
2018-03-22T10:07:02.506Z,95.74
2018-03-22T10:09:30.627Z,95.81
2018-03-22T10:11:58.769Z,96.25
2018-03-22T10:14:26.917Z,96.09
2018-03-22T10:16:55.068Z,96.18
2018-03-22T10:19:23.216Z,95.79
2018-03-22T10:21:51.356Z,96.17
2018-03-22T10:24:19.498Z,96.81
2018-03-22T10:26:47.636Z,95.48
2018-03-22T10:29:15.791Z,95.33
2018-03-22T10:31:43.913Z,95.37
2018-03-22T10:34:12.078Z,95.66
2018-03-22T10:36:40.203Z,95.55
2018-03-22T10:39:08.367Z,95.74
2018-03-22T10:41:36.636Z,96.41
2018-03-22T10:44:08.200Z,95.90
2018-03-22T10:46:37.240Z,96.06
2018-03-22T10:49:05.422Z,95.95
2018-03-22T10:51:33.570Z,95.91
2018-03-22T10:54:01.702Z,95.46
2018-03-22T10:56:29.847Z,95.53
2018-03-22T10:58:57.965Z,94.57
2018-03-22T11:01:35.166Z,94.58
2018-03-22T11:04:08.280Z,95.62
2018-03-22T11:06:36.418Z,95.63
2018-03-22T11:09:05.321Z,95.47
2018-03-22T11:11:33.483Z,95.49
2018-03-22T11:14:01.628Z,95.32
2018-03-22T11:16:29.780Z,95.00
2018-03-22T11:18:57.961Z,95.62
2018-03-22T11:21:26.077Z,95.70
2018-03-22T11:23:54.230Z,95.79
2018-03-22T11:26:26.127Z,96.07
2018-03-22T11:28:54.258Z,95.71
2018-03-22T11:31:22.404Z,95.70
2018-03-22T11:33:50.594Z,95.40
2018-03-22T11:36:18.720Z,95.41
2018-03-22T11:38:46.875Z,95.58
2018-03-22T11:41:15.037Z,95.75
2018-03-22T11:43:43.184Z,95.74
2018-03-22T11:46:11.359Z,95.89
2018-03-22T11:48:39.503Z,95.62
2018-03-22T11:51:07.657Z,95.74
2018-03-22T11:53:35.934Z,95.62
2018-03-22T11:56:04.092Z,96.12
2018-03-22T11:58:32.246Z,97.23
2018-03-22T12:01:00.398Z,96.36
2018-03-22T12:03:28.582Z,96.54
2018-03-22T12:05:56.761Z,96.62
2018-03-22T12:08:24.892Z,96.39
2018-03-22T12:10:53.446Z,96.46
2018-03-22T12:13:21.650Z,96.65
2018-03-22T12:15:49.781Z,96.73
2018-03-22T12:18:17.917Z,96.52
2018-03-22T12:20:46.066Z,96.68
2018-03-22T12:23:14.237Z,97.03
2018-03-22T12:25:42.409Z,97.43
2018-03-22T12:28:10.577Z,97.40
2018-03-22T12:30:38.772Z,97.04
2018-03-22T12:33:06.934Z,96.79
2018-03-22T12:35:35.095Z,96.41
2018-03-22T12:38:03.239Z,96.42
2018-03-22T12:40:31.392Z,95.23
2018-03-22T12:42:59.550Z,95.13
2018-03-22T12:45:27.683Z,95.11
2018-03-22T12:47:55.851Z,94.48
2018-03-22T12:50:23.982Z,93.67
2018-03-22T12:52:52.130Z,93.79
2018-03-22T12:55:20.272Z,93.75
2018-03-22T12:57:48.414Z,94.08
2018-03-22T13:00:16.567Z,93.72
2018-03-22T13:02:44.808Z,93.71
2018-03-22T13:05:12.978Z,93.76
2018-03-22T13:07:41.106Z,93.43
2018-03-22T13:10:09.236Z,93.31
2018-03-22T13:12:37.417Z,92.83
2018-03-22T13:15:08.497Z,93.02
2018-03-22T13:17:36.656Z,92.74
2018-03-22T13:20:04.815Z,92.57
2018-03-22T13:22:32.966Z,92.39
2018-03-22T13:25:01.130Z,92.32
2018-03-22T13:27:29.384Z,92.12
2018-03-22T13:29:57.571Z,91.92
2018-03-22T13:32:25.675Z,92.30
2018-03-22T13:34:53.833Z,92.55
2018-03-22T13:37:21.972Z,92.78
2018-03-22T13:39:50.215Z,93.31
2018-03-22T13:42:18.345Z,93.49
2018-03-22T13:44:46.508Z,93.16
2018-03-22T13:47:14.633Z,93.21
2018-03-22T13:49:42.785Z,93.06
2018-03-22T13:52:10.956Z,93.27
2018-03-22T13:54:39.129Z,93.23
2018-03-22T13:57:07.299Z,93.47
2018-03-22T13:59:35.468Z,93.97
2018-03-22T14:02:03.599Z,94.04
2018-03-22T14:04:31.772Z,94.04
2018-03-22T14:06:59.950Z,93.28
2018-03-22T14:09:28.090Z,93.12
2018-03-22T14:11:56.208Z,93.10
2018-03-22T14:14:27.781Z,92.38
2018-03-22T14:16:55.929Z,92.45
2018-03-22T14:19:24.189Z,91.55
2018-03-22T14:21:52.310Z,91.66
2018-03-22T14:24:20.515Z,91.55
2018-03-22T14:26:48.680Z,90.82
2018-03-22T14:29:16.824Z,89.64
2018-03-22T14:31:44.992Z,89.00
2018-03-22T14:34:13.154Z,89.33
2018-03-22T14:36:41.305Z,89.42
2018-03-22T14:39:09.432Z,88.88
2018-03-22T14:41:37.589Z,89.14
2018-03-22T14:44:05.717Z,88.68
2018-03-22T14:46:33.878Z,89.05
2018-03-22T14:49:02.023Z,88.94
2018-03-22T14:51:30.185Z,88.47
2018-03-22T14:53:58.364Z,88.45
2018-03-22T14:56:26.514Z,88.89
2018-03-22T14:58:54.662Z,88.17
2018-03-22T15:01:22.805Z,87.92
2018-03-22T15:03:50.974Z,88.25
2018-03-22T15:06:19.191Z,88.28
2018-03-22T15:08:47.274Z,88.47
2018-03-22T15:11:15.396Z,88.39
2018-03-22T15:13:43.558Z,88.33
2018-03-22T15:16:11.716Z,88.33
2018-03-22T15:18:39.865Z,88.47
2018-03-22T15:21:08.008Z,88.30
2018-03-22T15:23:36.137Z,88.03
2018-03-22T15:26:04.312Z,88.58
2018-03-22T15:28:32.471Z,88.65
2018-03-22T15:31:00.677Z,88.61
2018-03-22T15:33:28.833Z,89.38
2018-03-22T15:35:56.963Z,89.94
2018-03-22T15:38:25.139Z,90.21
2018-03-22T15:40:53.831Z,90.47
2018-03-22T15:43:22.089Z,90.64
2018-03-22T15:45:50.247Z,91.31
2018-03-22T15:48:18.393Z,91.45
2018-03-22T15:50:46.538Z,91.36
2018-03-22T15:53:14.696Z,90.53
2018-03-22T15:55:42.842Z,90.37
2018-03-22T15:58:11.019Z,90.29
2018-03-22T16:00:39.149Z,90.76
2018-03-22T16:03:07.377Z,89.45
2018-03-22T16:05:35.570Z,89.92
2018-03-22T16:08:03.738Z,89.48
2018-03-22T16:10:31.878Z,89.79
2018-03-22T16:13:00.011Z,89.88
2018-03-22T16:15:28.158Z,89.90
2018-03-22T16:17:56.284Z,90.08
2018-03-22T16:20:24.407Z,90.12
2018-03-22T16:22:52.557Z,90.85
2018-03-22T16:25:20.971Z,91.67
2018-03-22T16:27:49.094Z,91.61
2018-03-22T16:30:17.233Z,91.55
2018-03-22T16:32:45.376Z,91.89
2018-03-22T16:35:13.524Z,91.89
2018-03-22T16:37:41.674Z,91.67
2018-03-22T16:40:09.820Z,91.38
2018-03-22T16:42:39.856Z,90.99
2018-03-22T16:45:08.044Z,90.68
2018-03-22T16:47:36.290Z,90.60
2018-03-22T16:50:04.420Z,91.49
2018-03-22T16:52:32.575Z,91.12
2018-03-22T16:55:00.734Z,90.94
2018-03-22T16:57:28.887Z,90.75
2018-03-22T16:59:57.066Z,90.44
2018-03-22T17:02:25.322Z,90.34
2018-03-22T17:04:57.062Z,89.75
2018-03-22T17:07:25.227Z,89.81
2018-03-22T17:09:53.371Z,89.55
2018-03-22T17:12:21.508Z,90.02
2018-03-22T17:14:49.778Z,89.84
2018-03-22T17:17:17.924Z,89.45
2018-03-22T17:19:46.063Z,89.52
2018-03-22T17:22:14.187Z,89.81
2018-03-22T17:24:42.335Z,89.74
2018-03-22T17:27:10.482Z,89.63
2018-03-22T17:29:38.622Z,89.09
2018-03-22T17:32:06.879Z,89.23
2018-03-22T17:34:35.000Z,89.02
2018-03-22T17:37:03.160Z,88.81
2018-03-22T17:39:31.323Z,88.48
2018-03-22T17:41:59.458Z,87.76
2018-03-22T17:44:27.597Z,87.59
2018-03-22T17:46:55.726Z,87.80
2018-03-22T17:49:23.874Z,87.98
2018-03-22T17:51:51.996Z,87.86
2018-03-22T17:54:20.161Z,87.53
2018-03-22T17:56:48.299Z,86.73
2018-03-22T17:59:16.459Z,86.92
2018-03-22T18:01:44.581Z,87.17
2018-03-22T18:04:12.715Z,86.75
2018-03-22T18:06:40.849Z,86.37
2018-03-22T18:09:08.992Z,86.83
2018-03-22T18:11:37.138Z,86.49
2018-03-22T18:14:05.336Z,86.47
2018-03-22T18:16:33.573Z,86.85
2018-03-22T18:19:01.707Z,86.91
2018-03-22T18:21:29.870Z,86.67
2018-03-22T18:23:57.992Z,86.63
2018-03-22T18:26:26.146Z,86.69
2018-03-22T18:28:54.276Z,86.80
2018-03-22T18:31:22.443Z,87.23
2018-03-22T18:33:50.588Z,87.66
2018-03-22T18:36:18.745Z,87.72
2018-03-22T18:38:46.881Z,87.43
2018-03-22T18:41:15.025Z,87.48
2018-03-22T18:43:43.168Z,87.63
2018-03-22T18:46:11.322Z,88.65
2018-03-22T18:48:39.477Z,88.63
2018-03-22T18:51:07.598Z,89.14
2018-03-22T18:53:35.747Z,89.12
2018-03-22T18:56:03.858Z,89.53
2018-03-22T18:58:32.011Z,90.04
2018-03-22T19:01:00.168Z,90.09
2018-03-22T19:03:28.310Z,90.86
2018-03-22T19:05:56.458Z,91.64
2018-03-22T19:08:24.570Z,91.67
2018-03-22T19:10:52.764Z,91.59
2018-03-22T19:13:20.962Z,91.88
2018-03-22T19:15:49.129Z,92.13
2018-03-22T19:18:17.269Z,91.37
2018-03-22T19:20:45.421Z,91.76
2018-03-22T19:23:13.548Z,92.04
2018-03-22T19:25:42.776Z,92.57
2018-03-22T19:28:10.919Z,92.67
2018-03-22T19:30:39.072Z,92.68
2018-03-22T19:33:07.224Z,92.59
2018-03-22T19:35:35.391Z,92.61
2018-03-22T19:38:03.530Z,92.98
2018-03-22T19:40:31.709Z,93.24
2018-03-22T19:42:59.846Z,93.14
2018-03-22T19:45:27.993Z,92.99
2018-03-22T19:47:56.136Z,92.99
2018-03-22T19:50:24.277Z,93.26
2018-03-22T19:52:52.413Z,92.76
2018-03-22T19:55:20.570Z,92.76
2018-03-22T19:57:48.694Z,92.96
2018-03-22T20:00:16.899Z,92.80
2018-03-22T20:02:45.013Z,92.77
2018-03-22T20:05:13.185Z,92.37
2018-03-22T20:07:44.277Z,92.43
2018-03-22T20:10:12.426Z,91.97
2018-03-22T20:12:40.557Z,91.25
2018-03-22T20:15:08.723Z,91.71
2018-03-22T20:17:36.863Z,91.09
2018-03-22T20:20:05.007Z,90.79
2018-03-22T20:22:33.177Z,90.03
2018-03-22T20:25:01.298Z,89.07
2018-03-22T20:27:29.444Z,89.53
2018-03-22T20:29:57.722Z,88.92
2018-03-22T20:32:25.860Z,87.79
2018-03-22T20:34:54.157Z,88.31
2018-03-22T20:37:22.331Z,88.26
2018-03-22T20:39:50.465Z,88.63
2018-03-22T20:42:18.599Z,88.02
2018-03-22T20:44:46.754Z,88.32
2018-03-22T20:47:14.886Z,87.80
2018-03-22T20:49:43.062Z,87.69
2018-03-22T20:52:11.206Z,87.29
2018-03-22T20:54:39.355Z,87.70
2018-03-22T20:57:07.486Z,87.82
2018-03-22T20:59:35.664Z,87.93
2018-03-22T21:02:03.821Z,87.24
2018-03-22T21:04:31.966Z,87.76
2018-03-22T21:07:00.135Z,87.61
2018-03-22T21:09:28.313Z,87.55
2018-03-22T21:11:56.554Z,87.92
2018-03-22T21:14:24.764Z,87.90
2018-03-22T21:16:52.902Z,87.62
2018-03-22T21:19:21.072Z,88.23
2018-03-22T21:21:49.191Z,87.63
2018-03-22T21:24:17.348Z,87.81
2018-03-22T21:26:45.482Z,88.02
2018-03-22T21:29:13.817Z,88.01
2018-03-22T21:31:42.763Z,88.17
2018-03-22T21:34:10.944Z,87.36
2018-03-22T21:36:39.150Z,87.47
2018-03-22T21:39:07.313Z,87.49
2018-03-22T21:41:35.450Z,88.19
2018-03-22T21:44:15.295Z,88.24
2018-03-22T21:46:43.509Z,87.85
2018-03-22T21:49:11.703Z,87.71
2018-03-22T21:51:40.554Z,87.75
2018-03-22T21:54:08.691Z,87.53
2018-03-22T21:56:36.864Z,87.52
2018-03-22T21:59:05.015Z,87.52
2018-03-22T22:01:33.281Z,88.46
2018-03-22T22:04:01.459Z,88.46
2018-03-22T22:06:29.621Z,88.19
2018-03-22T22:08:57.864Z,88.12
2018-03-22T22:11:25.999Z,87.56
2018-03-22T22:13:54.145Z,87.71
2018-03-22T22:16:22.289Z,87.80
2018-03-22T22:18:50.563Z,87.80
2018-03-22T22:21:18.703Z,88.04
2018-03-22T22:23:46.870Z,88.43
2018-03-22T22:26:15.829Z,88.92
2018-03-22T22:28:43.957Z,88.81
2018-03-22T22:31:12.110Z,89.18
2018-03-22T22:33:40.267Z,88.78
2018-03-22T22:36:08.535Z,88.67
2018-03-22T22:38:36.656Z,88.71
2018-03-22T22:41:04.811Z,88.62
2018-03-22T22:43:32.942Z,87.93
2018-03-22T22:46:01.090Z,88.42
2018-03-22T22:48:29.263Z,88.42
2018-03-22T22:50:57.439Z,88.86
2018-03-22T22:53:25.582Z,88.61
2018-03-22T22:55:53.826Z,89.15
2018-03-22T22:58:21.996Z,88.60
2018-03-22T23:00:50.305Z,88.31
2018-03-22T23:03:18.431Z,88.40
2018-03-22T23:05:46.559Z,88.63
2018-03-22T23:08:14.889Z,88.53
2018-03-22T23:10:43.072Z,89.04
2018-03-22T23:13:11.205Z,88.69
2018-03-22T23:15:39.352Z,88.44
2018-03-22T23:18:07.476Z,88.44
2018-03-22T23:20:35.773Z,88.17
2018-03-22T23:23:03.981Z,88.34
2018-03-22T23:25:32.129Z,88.22
2018-03-22T23:28:00.315Z,87.88
2018-03-22T23:30:28.475Z,88.05
2018-03-22T23:32:56.667Z,88.19
2018-03-22T23:35:24.774Z,88.29
2018-03-22T23:37:52.912Z,88.38
2018-03-22T23:40:21.084Z,88.61
2018-03-22T23:42:49.213Z,88.31
2018-03-22T23:45:17.363Z,88.37
2018-03-22T23:47:45.489Z,88.12
2018-03-22T23:50:14.281Z,87.79
2018-03-22T23:52:42.416Z,88.17
2018-03-22T23:55:10.547Z,88.46
2018-03-22T23:57:38.690Z,88.24
